createdAt,value
2022-08-22T00:01:16.116Z,50.88
2022-08-22T00:02:41.880Z,48.71
2022-08-22T00:02:58.381Z,48.92
2022-08-22T00:03:59.699Z,50.54
2022-08-22T00:06:51.379Z,50.76
2022-08-22T00:09:35.444Z,50.82
2022-08-22T00:12:17.609Z,50.37
2022-08-22T00:14:58.264Z,50.86
2022-08-22T00:17:40.277Z,50.59
2022-08-22T00:20:19.142Z,50.65
2022-08-22T00:22:56.803Z,50.66
2022-08-22T00:25:47.772Z,50.68
2022-08-22T00:28:28.264Z,50.72
2022-08-22T00:31:08.432Z,50.73
2022-08-22T00:33:48.588Z,50.95
2022-08-22T00:36:26.385Z,50.93
2022-08-22T00:39:10.421Z,51.13
2022-08-22T00:42:15.728Z,51.02
2022-08-22T00:45:33.530Z,51.16
2022-08-22T00:48:21.548Z,51.26
2022-08-22T00:51:38.458Z,51.55
2022-08-22T00:54:25.552Z,51.21
2022-08-22T00:57:21.357Z,51.21
2022-08-22T01:00:13.535Z,51.36
2022-08-22T01:03:16.177Z,51.57
2022-08-22T01:06:02.485Z,51.22
2022-08-22T01:08:51.293Z,51.02
2022-08-22T01:12:08.833Z,51.50
2022-08-22T01:14:49.041Z,51.24
2022-08-22T01:18:00.541Z,51.57
2022-08-22T01:21:05.641Z,51.74
2022-08-22T01:24:24.132Z,51.84
2022-08-22T01:27:39.201Z,51.98
2022-08-22T01:30:22.714Z,51.67
2022-08-22T01:33:43.514Z,51.90
2022-08-22T01:36:45.485Z,51.86
2022-08-22T01:39:47.859Z,51.85
2022-08-22T01:42:40.735Z,51.93
2022-08-22T01:45:38.420Z,51.77
2022-08-22T01:48:17.200Z,51.71
2022-08-22T01:50:54.889Z,51.99
2022-08-22T01:53:39.518Z,51.70
2022-08-22T01:56:15.683Z,51.96
2022-08-22T01:58:57.778Z,51.99
2022-08-22T02:01:46.185Z,51.83
2022-08-22T02:04:30.666Z,51.85
2022-08-22T02:07:09.137Z,51.80
2022-08-22T02:09:52.325Z,51.50
2022-08-22T02:12:34.880Z,51.74
2022-08-22T02:15:18.868Z,51.78
2022-08-22T02:18:02.633Z,51.35
2022-08-22T02:20:41.198Z,51.25
2022-08-22T02:23:22.262Z,51.27
2022-08-22T02:26:04.422Z,51.40
2022-08-22T02:28:50.888Z,51.16
2022-08-22T02:31:43.297Z,51.04
2022-08-22T02:34:25.797Z,51.34
2022-08-22T02:37:08.569Z,51.20
2022-08-22T02:39:46.794Z,51.43
2022-08-22T02:42:27.273Z,50.99
2022-08-22T02:45:12.343Z,51.17
2022-08-22T02:47:55.981Z,50.96
2022-08-22T02:50:38.370Z,51.32
2022-08-22T02:53:16.484Z,51.15
2022-08-22T02:55:55.252Z,51.09
2022-08-22T02:58:37.039Z,51.22
2022-08-22T03:01:21.305Z,51.17
2022-08-22T03:04:31.475Z,51.60
2022-08-22T03:07:11.550Z,51.06
2022-08-22T03:09:49.472Z,51.22
2022-08-22T03:12:28.906Z,51.29
2022-08-22T03:15:19.564Z,51.24
2022-08-22T03:17:57.370Z,51.66
2022-08-22T03:20:47.037Z,51.27
2022-08-22T03:23:28.444Z,51.57
2022-08-22T03:26:09.002Z,51.21
2022-08-22T03:28:59.283Z,51.24
2022-08-22T03:31:35.927Z,51.34
2022-08-22T03:34:21.520Z,51.47
2022-08-22T03:37:03.090Z,51.17
2022-08-22T03:39:50.401Z,51.63
2022-08-22T03:42:59.876Z,51.26
2022-08-22T03:46:04.460Z,51.16
2022-08-22T03:49:06.087Z,51.40
2022-08-22T03:51:58.715Z,51.41
2022-08-22T03:55:01.181Z,51.56
2022-08-22T03:58:11.970Z,51.48
2022-08-22T04:01:20.871Z,51.26
2022-08-22T04:04:16.783Z,51.32
2022-08-22T04:07:28.416Z,51.45
2022-08-22T04:10:39.753Z,51.46
2022-08-22T04:13:43.511Z,51.48
2022-08-22T04:17:00.119Z,51.85
2022-08-22T04:19:55.007Z,51.62
2022-08-22T04:22:52.639Z,51.81
2022-08-22T04:25:31.412Z,51.60
2022-08-22T04:28:10.211Z,51.61
2022-08-22T04:30:48.441Z,51.75
2022-08-22T04:33:26.872Z,51.59
2022-08-22T04:36:05.449Z,51.87
2022-08-22T04:38:42.984Z,51.62
2022-08-22T04:41:24.550Z,51.69
2022-08-22T04:44:00.231Z,51.90
2022-08-22T04:46:39.057Z,51.92
2022-08-22T04:49:19.881Z,51.61
2022-08-22T04:52:00.524Z,51.54
2022-08-22T04:54:53.597Z,52.11
2022-08-22T04:57:32.816Z,51.93
2022-08-22T05:00:08.993Z,52.18
2022-08-22T05:02:48.346Z,51.93
2022-08-22T05:05:25.086Z,51.59
2022-08-22T05:08:02.994Z,51.60
2022-08-22T05:10:39.002Z,51.49
2022-08-22T05:13:18.375Z,51.05
2022-08-22T05:15:56.624Z,50.80
2022-08-22T05:18:35.004Z,51.02
2022-08-22T05:21:11.137Z,50.98
2022-08-22T05:23:51.466Z,51.13
2022-08-22T05:26:25.442Z,51.01
2022-08-22T05:29:03.016Z,51.28
2022-08-22T05:31:42.164Z,51.62
2022-08-22T05:34:18.619Z,51.72
2022-08-22T05:36:56.049Z,52.11
2022-08-22T05:39:31.277Z,52.12
2022-08-22T05:42:04.821Z,52.17
2022-08-22T05:44:38.657Z,52.48
2022-08-22T05:47:22.487Z,53.07
2022-08-22T05:50:01.125Z,53.57
2022-08-22T05:52:59.398Z,53.88
2022-08-22T05:55:41.769Z,54.15
2022-08-22T05:58:43.052Z,54.39
2022-08-22T06:01:25.287Z,54.67
2022-08-22T06:04:06.877Z,54.94
2022-08-22T06:06:56.447Z,54.81
2022-08-22T06:09:34.843Z,54.95
2022-08-22T06:12:22.122Z,54.77
2022-08-22T06:15:02.988Z,55.19
2022-08-22T06:17:48.888Z,55.19
2022-08-22T06:20:24.360Z,55.36
2022-08-22T06:23:01.073Z,54.73
2022-08-22T06:25:36.181Z,54.28
2022-08-22T06:28:24.194Z,54.32
2022-08-22T06:30:58.865Z,53.76
2022-08-22T06:33:36.778Z,53.19
2022-08-22T06:36:34.020Z,53.04
2022-08-22T06:39:16.095Z,52.81
2022-08-22T06:41:52.601Z,52.64
2022-08-22T06:44:30.567Z,52.64
2022-08-22T06:47:06.687Z,52.59
2022-08-22T06:49:42.713Z,52.67
2022-08-22T06:52:21.455Z,52.79
2022-08-22T06:55:00.502Z,52.49
2022-08-22T06:57:36.446Z,53.23
2022-08-22T07:00:15.516Z,53.34
2022-08-22T07:02:53.001Z,53.45
2022-08-22T07:05:28.606Z,53.62
2022-08-22T07:08:07.026Z,53.94
2022-08-22T07:10:41.975Z,53.75
2022-08-22T07:13:16.577Z,53.87
2022-08-22T07:15:56.278Z,53.81
2022-08-22T07:18:30.133Z,53.96
2022-08-22T07:21:04.966Z,53.88
2022-08-22T07:23:40.619Z,54.08
2022-08-22T07:26:21.195Z,54.15
2022-08-22T07:28:59.258Z,54.33
2022-08-22T07:31:37.894Z,54.48
2022-08-22T07:34:26.388Z,54.41
2022-08-22T07:37:03.537Z,54.50
2022-08-22T07:39:39.442Z,54.44
2022-08-22T07:42:16.623Z,54.42
2022-08-22T07:45:01.977Z,54.46
2022-08-22T07:47:52.822Z,54.23
2022-08-22T07:50:30.375Z,54.19
2022-08-22T07:53:10.740Z,54.00
2022-08-22T07:55:49.255Z,53.71
2022-08-22T07:58:26.950Z,53.69
2022-08-22T08:01:00.450Z,53.42
2022-08-22T08:03:35.497Z,53.72
2022-08-22T08:06:09.124Z,53.44
2022-08-22T08:08:45.383Z,53.75
2022-08-22T08:11:21.187Z,53.45
2022-08-22T08:13:59.500Z,53.27
2022-08-22T08:16:40.610Z,53.08
2022-08-22T08:19:19.073Z,52.82
2022-08-22T08:21:54.470Z,52.61
2022-08-22T08:24:36.285Z,52.71
2022-08-22T08:27:35.970Z,52.75
2022-08-22T08:30:15.611Z,52.96
2022-08-22T08:32:59.543Z,52.21
2022-08-22T08:36:02.455Z,51.98
2022-08-22T08:38:42.725Z,51.56
2022-08-22T08:41:57.369Z,51.50
2022-08-22T08:44:57.185Z,51.25
2022-08-22T08:47:42.349Z,50.66
2022-08-22T08:50:33.757Z,50.55
2022-08-22T08:53:44.880Z,50.63
2022-08-22T08:56:26.239Z,50.84
2022-08-22T08:59:10.016Z,50.22
2022-08-22T09:02:13.882Z,50.37
2022-08-22T09:05:18.690Z,50.05
2022-08-22T09:08:06.350Z,49.93
2022-08-22T09:14:17.292Z,49.58
2022-08-22T09:17:20.000Z,49.31
2022-08-22T09:20:19.333Z,48.77
2022-08-22T09:23:40.859Z,48.94
2022-08-22T09:26:24.132Z,47.61
2022-08-22T09:29:02.212Z,47.66
2022-08-22T09:31:47.601Z,46.77
2022-08-22T09:34:29.987Z,45.81
2022-08-22T09:37:19.608Z,45.90
2022-08-22T09:40:00.927Z,44.93
2022-08-22T09:40:16.395Z,49.83
2022-08-22T09:43:01.815Z,45.57
2022-08-22T09:45:41.005Z,44.28
2022-08-22T09:48:34.833Z,44.58
2022-08-22T09:51:31.608Z,44.61
2022-08-22T09:54:16.392Z,44.46
2022-08-22T09:57:01.689Z,43.76
2022-08-22T09:59:58.116Z,44.23
2022-08-22T10:02:43.326Z,43.44
2022-08-22T10:05:41.249Z,43.47
2022-08-22T10:08:31.682Z,43.96
2022-08-22T10:11:19.048Z,43.70
2022-08-22T10:14:01.255Z,43.07
2022-08-22T10:16:47.329Z,43.37
2022-08-22T10:19:27.669Z,43.44
2022-08-22T10:22:23.571Z,43.64
2022-08-22T10:25:20.463Z,43.44
2022-08-22T10:28:15.189Z,43.90
2022-08-22T10:31:06.483Z,42.43
2022-08-22T10:33:44.377Z,42.09
2022-08-22T10:36:27.321Z,41.87
2022-08-22T10:39:09.485Z,41.13
2022-08-22T10:42:01.514Z,41.86
2022-08-22T10:44:43.093Z,41.09
2022-08-22T10:47:22.354Z,40.89
2022-08-22T10:50:03.934Z,40.44
2022-08-22T10:52:48.693Z,40.74
2022-08-22T10:55:26.469Z,40.12
2022-08-22T10:58:06.964Z,40.36
2022-08-22T11:00:49.947Z,40.13
2022-08-22T11:03:28.241Z,39.94
2022-08-22T11:06:06.885Z,39.56
2022-08-22T11:09:05.278Z,41.12
2022-08-22T11:11:42.996Z,39.47
2022-08-22T11:14:57.426Z,41.86
2022-08-22T11:18:04.787Z,41.35
2022-08-22T11:20:52.369Z,40.53
2022-08-22T11:23:43.307Z,40.88
2022-08-22T11:26:38.279Z,40.80
2022-08-22T11:29:33.244Z,40.82
2022-08-22T11:32:15.279Z,40.86
2022-08-22T11:34:56.053Z,40.44
2022-08-22T11:37:45.261Z,40.86
2022-08-22T11:40:33.033Z,40.67
2022-08-22T11:43:32.592Z,40.55
2022-08-22T11:46:19.918Z,40.84
2022-08-22T11:49:25.574Z,41.71
2022-08-22T11:52:10.094Z,40.45
2022-08-22T11:55:16.962Z,41.23
2022-08-22T11:57:55.278Z,40.86
2022-08-22T12:00:34.541Z,40.29
2022-08-22T12:03:23.399Z,40.36
2022-08-22T12:06:03.707Z,39.45
2022-08-22T12:09:14.405Z,40.46
2022-08-22T12:12:07.990Z,39.81
2022-08-22T12:14:49.623Z,39.57
2022-08-22T12:17:55.896Z,39.44
2022-08-22T12:20:56.405Z,40.18
2022-08-22T12:23:56.671Z,39.92
2022-08-22T12:26:40.648Z,39.58
2022-08-22T12:29:33.510Z,39.73
2022-08-22T12:32:51.720Z,40.87
2022-08-22T12:35:47.406Z,40.58
2022-08-22T12:38:34.844Z,39.96
2022-08-22T12:41:36.937Z,40.32
2022-08-22T12:44:31.530Z,40.12
2022-08-22T12:47:21.272Z,39.83
2022-08-22T12:50:13.202Z,39.84
2022-08-22T12:53:08.844Z,40.38
2022-08-22T12:56:01.431Z,40.00
2022-08-22T12:59:06.311Z,40.29
2022-08-22T13:01:43.724Z,39.54
2022-08-22T13:04:33.061Z,39.63
2022-08-22T13:07:10.252Z,39.57
2022-08-22T13:09:49.269Z,39.62
2022-08-22T13:12:29.169Z,39.33
2022-08-22T13:15:13.455Z,39.54
2022-08-22T13:17:46.472Z,39.39
2022-08-22T13:20:26.537Z,39.60
2022-08-22T13:23:00.793Z,38.97
2022-08-22T13:26:11.817Z,39.96
2022-08-22T13:29:00.289Z,38.89
2022-08-22T13:31:51.371Z,38.88
2022-08-22T13:34:39.635Z,39.63
2022-08-22T13:37:17.019Z,38.71
2022-08-22T13:39:53.750Z,38.63
2022-08-22T13:42:31.340Z,38.24
2022-08-22T13:45:14.555Z,38.16
2022-08-22T13:47:52.107Z,37.91
2022-08-22T13:50:29.096Z,38.09
2022-08-22T13:53:15.783Z,37.85
2022-08-22T13:55:55.831Z,37.71
2022-08-22T13:58:38.410Z,37.90
2022-08-22T14:01:28.388Z,38.41
2022-08-22T14:04:17.589Z,37.77
2022-08-22T14:07:23.968Z,38.82
2022-08-22T14:10:02.495Z,38.40
2022-08-22T14:12:50.843Z,38.78
2022-08-22T14:15:32.100Z,38.55
2022-08-22T14:18:32.461Z,39.05
2022-08-22T14:21:41.398Z,40.37
2022-08-22T14:24:19.542Z,39.07
2022-08-22T14:26:57.930Z,39.12
2022-08-22T14:29:42.323Z,39.31
2022-08-22T14:32:36.561Z,39.61
2022-08-22T14:35:23.502Z,39.40
2022-08-22T14:38:27.472Z,39.51
2022-08-22T14:41:05.564Z,39.52
2022-08-22T14:43:50.349Z,39.81
2022-08-22T14:46:29.457Z,39.77
2022-08-22T14:49:24.782Z,40.37
2022-08-22T14:52:06.528Z,39.73
2022-08-22T14:54:42.595Z,39.74
2022-08-22T14:57:20.189Z,39.75
2022-08-22T14:59:53.696Z,39.99
2022-08-22T15:02:29.550Z,40.22
2022-08-22T15:05:17.013Z,40.42
2022-08-22T15:07:59.505Z,40.36
2022-08-22T15:10:34.441Z,40.54
2022-08-22T15:13:11.004Z,40.70
2022-08-22T15:15:52.949Z,40.83
2022-08-22T15:18:35.709Z,41.39
2022-08-22T15:21:11.487Z,41.55
2022-08-22T15:23:46.800Z,41.73
2022-08-22T15:26:25.927Z,42.23
2022-08-22T15:29:08.665Z,42.39
2022-08-22T15:31:46.451Z,42.17
2022-08-22T15:34:24.722Z,42.25
2022-08-22T15:37:27.800Z,42.92
2022-08-22T15:40:08.192Z,42.91
2022-08-22T15:42:47.399Z,42.96
2022-08-22T15:45:29.083Z,43.18
2022-08-22T15:48:07.083Z,43.32
2022-08-22T15:50:54.847Z,43.27
2022-08-22T15:53:33.569Z,42.94
2022-08-22T15:56:22.626Z,43.74
2022-08-22T15:59:20.669Z,43.81
2022-08-22T16:01:59.052Z,43.21
2022-08-22T16:04:40.458Z,43.51
2022-08-22T16:07:32.656Z,43.93
2022-08-22T16:10:13.187Z,43.46
2022-08-22T16:12:47.909Z,43.62
2022-08-22T16:15:56.699Z,44.15
2022-08-22T16:19:13.974Z,44.16
2022-08-22T16:22:09.831Z,44.02
2022-08-22T16:25:05.889Z,44.02
2022-08-22T16:27:55.225Z,43.88
2022-08-22T16:30:35.060Z,43.94
2022-08-22T16:33:17.717Z,43.97
2022-08-22T16:36:54.032Z,44.79
2022-08-22T16:39:37.396Z,44.40
2022-08-22T16:42:26.227Z,44.02
2022-08-22T16:45:11.741Z,44.38
2022-08-22T16:47:56.386Z,44.16
2022-08-22T16:50:36.920Z,44.01
2022-08-22T16:53:31.491Z,44.11
2022-08-22T16:56:24.730Z,44.19
2022-08-22T16:59:23.849Z,44.13
2022-08-22T17:02:36.606Z,44.52
2022-08-22T17:05:24.132Z,44.40
2022-08-22T17:08:15.161Z,44.26
2022-08-22T17:11:03.109Z,44.61
2022-08-22T17:14:13.691Z,44.73
2022-08-22T17:17:01.642Z,44.30
2022-08-22T17:19:48.126Z,44.70
2022-08-22T17:22:31.996Z,43.97
2022-08-22T17:25:16.961Z,44.28
2022-08-22T17:28:03.296Z,44.29
2022-08-22T17:30:45.164Z,44.03
2022-08-22T17:33:27.984Z,44.35
2022-08-22T17:36:20.255Z,44.43
2022-08-22T17:39:10.169Z,43.99
2022-08-22T17:41:50.593Z,44.41
2022-08-22T17:44:32.019Z,44.10
2022-08-22T17:47:12.544Z,44.40
2022-08-22T17:49:55.111Z,44.47
2022-08-22T17:52:36.603Z,44.25
2022-08-22T17:55:17.872Z,44.61
2022-08-22T17:57:55.826Z,44.57
2022-08-22T18:00:33.562Z,44.95
2022-08-22T18:03:14.195Z,44.53
2022-08-22T18:05:50.524Z,45.10
2022-08-22T18:09:13.380Z,45.15
2022-08-22T18:11:31.182Z,44.95
2022-08-22T18:14:25.749Z,45.36
2022-08-22T18:17:01.005Z,45.40
2022-08-22T18:19:42.439Z,45.19
2022-08-22T18:22:22.530Z,45.41
2022-08-22T18:25:01.537Z,45.58
2022-08-22T18:27:40.126Z,45.28
2022-08-22T18:30:19.857Z,45.56
2022-08-22T18:32:58.395Z,45.66
2022-08-22T18:35:40.365Z,45.81
2022-08-22T18:38:23.328Z,45.82
2022-08-22T18:41:10.759Z,46.33
2022-08-22T18:43:46.640Z,46.58
2022-08-22T18:46:43.762Z,47.29
2022-08-22T18:49:43.439Z,47.45
2022-08-22T18:52:33.218Z,47.84
2022-08-22T18:55:31.390Z,48.18
2022-08-22T18:58:31.148Z,48.48
2022-08-22T19:01:19.424Z,49.31
2022-08-22T19:04:18.357Z,49.51
2022-08-22T19:07:10.354Z,49.80
2022-08-22T19:10:07.425Z,50.01
2022-08-22T19:13:01.141Z,50.39
2022-08-22T19:15:49.595Z,50.25
2022-08-22T19:18:40.586Z,50.24
2022-08-22T19:21:37.677Z,50.15
2022-08-22T19:24:33.305Z,49.88
2022-08-22T19:27:24.787Z,49.88
2022-08-22T19:30:07.804Z,49.82
2022-08-22T19:33:12.420Z,49.76
2022-08-22T19:36:01.189Z,49.30
2022-08-22T19:38:54.510Z,49.25
2022-08-22T19:41:46.163Z,48.93
2022-08-22T19:44:37.875Z,48.92
2022-08-22T19:47:27.983Z,48.81
2022-08-22T19:50:07.142Z,48.59
2022-08-22T19:53:05.295Z,48.70
2022-08-22T19:55:54.615Z,48.65
2022-08-22T19:58:36.207Z,48.10
2022-08-22T20:01:28.801Z,48.31
2022-08-22T20:04:06.634Z,48.01
2022-08-22T20:06:51.822Z,48.04
2022-08-22T20:09:32.472Z,47.91
2022-08-22T20:12:15.546Z,47.85
2022-08-22T20:14:49.588Z,47.86
2022-08-22T20:17:40.172Z,48.08
2022-08-22T20:20:36.102Z,47.90
2022-08-22T20:23:20.584Z,47.78
2022-08-22T20:25:56.060Z,47.71
2022-08-22T20:28:36.470Z,47.71
2022-08-22T20:31:21.037Z,47.75
2022-08-22T20:34:00.752Z,47.77
2022-08-22T20:36:33.371Z,47.76
2022-08-22T20:39:11.037Z,47.80
2022-08-22T20:41:49.964Z,47.64
2022-08-22T20:44:28.936Z,47.75
2022-08-22T20:47:06.175Z,48.03
2022-08-22T20:49:46.525Z,47.91
2022-08-22T20:52:26.265Z,47.92
2022-08-22T20:55:05.698Z,48.12
2022-08-22T20:57:46.194Z,47.98
2022-08-22T21:00:21.908Z,48.12
2022-08-22T21:02:58.929Z,47.84
2022-08-22T21:05:35.066Z,48.03
2022-08-22T21:08:10.603Z,48.02
2022-08-22T21:11:15.808Z,48.14
2022-08-22T21:13:49.024Z,48.09
2022-08-22T21:16:31.463Z,48.08
2022-08-22T21:19:04.448Z,47.95
2022-08-22T21:21:36.953Z,48.07
2022-08-22T21:24:10.190Z,48.16
2022-08-22T21:26:51.229Z,48.06
2022-08-22T21:29:29.924Z,48.07
2022-08-22T21:32:18.834Z,48.13
2022-08-22T21:34:52.188Z,48.40
2022-08-22T21:37:34.817Z,48.30
2022-08-22T21:40:15.338Z,48.36
2022-08-22T21:43:02.161Z,48.38
2022-08-22T21:45:41.982Z,48.26
2022-08-22T21:48:40.053Z,48.49
2022-08-22T21:51:38.981Z,48.42
2022-08-22T21:54:40.095Z,48.55
2022-08-22T21:57:20.107Z,48.41
2022-08-22T21:59:59.296Z,48.36
2022-08-22T22:02:37.177Z,48.36
2022-08-22T22:05:11.857Z,48.23
2022-08-22T22:07:46.885Z,48.25
2022-08-22T22:10:22.786Z,48.20
2022-08-22T22:12:58.720Z,48.15
2022-08-22T22:15:36.915Z,48.08
2022-08-22T22:18:09.999Z,48.17
2022-08-22T22:20:44.199Z,48.22
2022-08-22T22:23:16.816Z,48.22
2022-08-22T22:25:50.628Z,48.12
2022-08-22T22:28:25.927Z,48.23
2022-08-22T22:31:00.192Z,48.09
2022-08-22T22:33:34.453Z,48.02
2022-08-22T22:36:10.958Z,48.23
2022-08-22T22:38:43.675Z,48.25
2022-08-22T22:41:19.289Z,48.25
2022-08-22T22:43:52.400Z,48.14
2022-08-22T22:46:27.281Z,48.20
2022-08-22T22:49:00.016Z,48.11
2022-08-22T22:51:32.581Z,48.27
2022-08-22T22:54:05.392Z,48.45
2022-08-22T22:56:37.826Z,48.26
2022-08-22T22:59:10.744Z,48.44
2022-08-22T23:02:12.417Z,48.64
2022-08-22T23:04:46.897Z,48.49
2022-08-22T23:07:20.369Z,48.58
2022-08-22T23:09:53.588Z,48.71
2022-08-22T23:12:27.432Z,48.76
2022-08-22T23:15:01.138Z,48.82
2022-08-22T23:17:37.752Z,48.68
2022-08-22T23:20:11.193Z,48.80
2022-08-22T23:22:45.162Z,48.89
2022-08-22T23:25:17.790Z,48.79
2022-08-22T23:27:52.265Z,48.88
2022-08-22T23:30:25.250Z,49.00
2022-08-22T23:32:59.256Z,49.09
2022-08-22T23:35:31.703Z,49.25
2022-08-22T23:38:04.100Z,49.10
2022-08-22T23:40:36.662Z,49.33
2022-08-22T23:43:09.645Z,49.16
2022-08-22T23:45:42.022Z,49.34
2022-08-22T23:48:15.814Z,49.32
2022-08-22T23:50:48.328Z,49.31
2022-08-22T23:53:20.890Z,49.47
2022-08-22T23:55:53.357Z,49.39
2022-08-22T23:58:25.836Z,49.50
